KCAD/CAD METAR and TAF weather

Enter ICAO airport designator
Station Type Date Time Source
KCAD METAR 2019/06/19 03:15 UTC NOAA

KCAD 190315Z AUTO 00000KT 10SM OVC060 18/17 A2988 RMK AO2 T01850175


Station Type Date Time Source
KCAD Decoded METAR 2019/06/19 03:15 UTC NOAA

Cadillac / Wexford County, MI, United States (KCAD) 44-17N 085-25W
Jun 18, 2019 - 11:15 PM EDT / 2019.06.19 0315 UTC
Wind: Calm:0
Visibility: 10 mile(s):0
Sky conditions: overcast
Temperature: 65.3 F (18.5 C)
Dew Point: 63.5 F (17.5 C)
Relative Humidity: 93%
Pressure (altimeter): 29.88 in. Hg (1011 hPa)
ob: KCAD 190315Z AUTO 00000KT 10SM OVC060 18/17 A2988 RMK AO2 T01850175
cycle: 3

Station Type Date Time Source
KCAD TAF UTC NOAA

Error!

Example: see airport list